Time;durP1;ratioP1;P1;durP2;ratioP2;P2;SDS_P1;SDS_P2;PMS_P1;PMS_P2;Temp;Humidity;BMP_temperature;BMP_pressure;BME280_temperature;BME280_humidity;BME280_pressure;Samples;Min_cycle;Max_cycle;Signal;HPM_P1;HPM_P2
2023/06/27 00:01:29;;;;;;;5.57;2.25;;;;;;;15.97;100.00;100882.06;6307609;28;20044;-88
2023/06/27 00:04:31;;;;;;;7.60;2.47;;;;;;;15.99;100.00;100891.41;6301765;28;20461;-88
2023/06/27 00:07:32;;;;;;;5.80;2.83;;;;;;;15.91;100.00;100886.91;6269503;28;20052;-89
2023/06/27 00:10:34;;;;;;;3.75;2.28;;;;;;;15.88;100.00;100889.00;6287875;28;20427;-89
2023/06/27 00:13:41;;;;;;;5.93;2.53;;;;;;;15.88;100.00;100886.41;6301397;28;20044;-89
2023/06/27 00:16:43;;;;;;;4.25;2.13;;;;;;;15.83;100.00;100883.41;6289269;28;20045;-89
2023/06/27 00:19:46;;;;;;;4.68;2.20;;;;;;;15.74;100.00;100885.09;6309561;28;20047;-89
2023/06/27 00:22:48;;;;;;;7.78;2.85;;;;;;;15.75;100.00;100893.75;6291022;28;20074;-89
2023/06/27 00:25:50;;;;;;;3.88;2.20;;;;;;;15.71;100.00;100893.22;6289293;28;20538;-89
2023/06/27 00:28:51;;;;;;;4.75;2.17;;;;;;;15.74;100.00;100892.91;6265960;28;20045;-88
2023/06/27 00:31:54;;;;;;;6.22;2.30;;;;;;;15.68;100.00;100894.31;6280574;28;20127;-89
2023/06/27 00:34:57;;;;;;;9.73;2.33;;;;;;;15.64;100.00;100892.94;6312284;28;20044;-89
2023/06/27 00:37:59;;;;;;;5.60;2.95;;;;;;;15.62;100.00;100889.66;6293280;28;20100;-89
2023/06/27 00:41:02;;;;;;;4.82;2.70;;;;;;;15.59;100.00;100895.16;6295529;28;20049;-89
2023/06/27 00:44:10;;;;;;;4.88;2.55;;;;;;;15.56;100.00;100890.25;6310334;28;20048;-89
2023/06/27 00:47:12;;;;;;;3.97;2.00;;;;;;;15.62;100.00;100897.47;6287455;28;20398;-90
2023/06/27 00:50:15;;;;;;;25.05;3.03;;;;;;;15.53;100.00;100898.38;6307407;28;20409;-89
2023/06/27 00:53:17;;;;;;;8.57;2.47;;;;;;;15.47;100.00;100898.91;6313109;28;20465;-89
2023/06/27 00:56:19;;;;;;;4.63;1.90;;;;;;;15.49;100.00;100907.44;6290883;28;20044;-89
2023/06/27 00:59:22;;;;;;;2.63;1.75;;;;;;;15.45;100.00;100909.53;6273577;28;20147;-90
2023/06/27 01:02:24;;;;;;;7.60;2.00;;;;;;;15.42;100.00;100907.19;6286479;28;20065;-89
2023/06/27 01:05:27;;;;;;;6.93;1.90;;;;;;;15.39;100.00;100904.88;6312720;28;20494;-89
2023/06/27 01:08:47;;;;;;;1.88;1.58;;;;;;;15.33;100.00;100908.06;6282477;28;20048;-89
2023/06/27 01:12:16;;;;;;;4.30;1.77;;;;;;;15.33;100.00;100902.00;6272077;28;20048;-89
2023/06/27 01:15:18;;;;;;;3.43;1.53;;;;;;;15.24;100.00;100896.69;6209321;28;20093;-89
2023/06/27 01:18:22;;;;;;;3.67;1.58;;;;;;;15.20;100.00;100904.91;6210140;28;20045;-90
2023/06/27 01:21:28;;;;;;;3.25;1.50;;;;;;;15.20;100.00;100895.31;6209613;28;20049;-90
2023/06/27 01:24:31;;;;;;;2.70;1.65;;;;;;;15.11;100.00;100906.59;6209317;28;20081;-89
2023/06/27 01:27:33;;;;;;;3.05;1.55;;;;;;;15.10;100.00;100899.72;6202138;28;20058;-90
2023/06/27 01:30:35;;;;;;;7.60;1.90;;;;;;;15.08;100.00;100899.88;6208659;28;20046;-90
2023/06/27 01:33:48;;;;;;;7.05;1.55;;;;;;;15.10;100.00;100897.13;6190517;28;20045;-90
2023/06/27 01:37:03;;;;;;;3.38;1.40;;;;;;;15.15;100.00;100899.31;6160685;28;20587;-89
2023/06/27 01:40:14;;;;;;;5.30;1.38;;;;;;;15.08;100.00;100896.47;6208453;28;20053;-90
2023/06/27 01:43:16;;;;;;;5.50;1.55;;;;;;;15.06;100.00;100901.00;6170914;28;20053;-89
2023/06/27 01:46:19;;;;;;;4.18;1.55;;;;;;;15.05;100.00;100891.50;6197502;28;20558;-90
2023/06/27 01:49:23;;;;;;;2.83;1.60;;;;;;;14.99;100.00;100898.13;6208446;28;20057;-90
2023/06/27 01:52:25;;;;;;;5.13;1.95;;;;;;;15.02;100.00;100891.81;6241478;28;20136;-89
2023/06/27 01:55:26;;;;;;;3.47;1.70;;;;;;;14.97;100.00;100891.41;6294022;28;20040;-90
2023/06/27 01:58:30;;;;;;;4.03;2.10;;;;;;;14.96;100.00;100892.38;6288514;28;20081;-90
2023/06/27 02:01:32;;;;;;;2.47;1.48;;;;;;;14.93;100.00;100890.03;6293108;28;20052;-90
2023/06/27 02:04:34;;;;;;;4.00;1.48;;;;;;;14.91;100.00;100891.97;6292751;28;20040;-90
2023/06/27 02:07:36;;;;;;;4.07;1.65;;;;;;;14.83;100.00;100888.28;6293147;28;20745;-91
2023/06/27 02:10:38;;;;;;;5.88;1.83;;;;;;;14.83;100.00;100890.03;6300962;28;20040;-90
2023/06/27 02:13:46;;;;;;;5.47;1.73;;;;;;;14.79;100.00;100891.31;6298389;28;20469;-90
2023/06/27 02:16:48;;;;;;;4.50;1.83;;;;;;;14.79;100.00;100888.69;6279537;28;20488;-90
2023/06/27 02:19:52;;;;;;;2.83;1.42;;;;;;;14.78;100.00;100885.28;6281903;28;20177;-90
2023/06/27 02:22:53;;;;;;;2.50;1.35;;;;;;;14.76;100.00;100887.19;6303454;28;20209;-89
2023/06/27 02:25:55;;;;;;;2.38;1.40;;;;;;;14.79;100.00;100884.31;6303745;28;20040;-89
2023/06/27 02:28:57;;;;;;;5.43;1.88;;;;;;;14.79;100.00;100880.88;6291309;28;20072;-90
2023/06/27 02:31:59;;;;;;;2.28;1.33;;;;;;;14.75;100.00;100890.75;6294994;28;20048;-91
2023/06/27 02:35:01;;;;;;;3.03;1.60;;;;;;;14.74;100.00;100889.13;6301560;28;20100;-90
2023/06/27 02:38:03;;;;;;;2.47;1.23;;;;;;;14.73;100.00;100884.88;6311374;28;20050;-90
2023/06/27 02:41:05;;;;;;;3.60;1.63;;;;;;;14.74;100.00;100876.09;6290700;28;20516;-90
2023/06/27 02:44:10;;;;;;;3.97;1.80;;;;;;;14.71;100.00;100881.59;6311806;28;20044;-91
2023/06/27 02:47:11;;;;;;;2.42;1.40;;;;;;;14.69;100.00;100880.06;6292560;28;20036;-90
2023/06/27 02:50:13;;;;;;;4.30;1.92;;;;;;;14.66;100.00;100886.38;6301892;28;20078;-91
2023/06/27 02:53:16;;;;;;;5.63;2.15;;;;;;;14.73;100.00;100889.25;6285086;28;20592;-90
2023/06/27 02:56:18;;;;;;;2.40;1.45;;;;;;;14.68;100.00;100881.03;6305578;28;20035;-90
2023/06/27 02:59:22;;;;;;;4.70;1.83;;;;;;;14.64;100.00;100889.13;6288171;28;20044;-92
2023/06/27 03:02:25;;;;;;;2.72;1.33;;;;;;;14.65;100.00;100890.75;6283965;28;20063;-90
2023/06/27 03:05:28;;;;;;;4.80;1.77;;;;;;;14.61;100.00;100884.19;6283002;28;20117;-90
2023/06/27 03:08:31;;;;;;;2.97;1.52;;;;;;;14.63;100.00;100881.44;6274910;28;20093;-90
2023/06/27 03:11:33;;;;;;;3.40;1.48;;;;;;;14.70;100.00;100885.13;6275113;28;20348;-90
2023/06/27 03:14:35;;;;;;;4.10;1.50;;;;;;;14.69;100.00;100880.91;6274871;28;20036;-90
2023/06/27 03:17:36;;;;;;;5.55;1.52;;;;;;;14.75;100.00;100884.72;6299902;28;20044;-90
2023/06/27 03:20:42;;;;;;;4.45;1.73;;;;;;;14.75;100.00;100884.72;6282517;28;20055;-90
2023/06/27 03:23:44;;;;;;;4.32;1.75;;;;;;;14.72;100.00;100874.59;6282918;28;20177;-91
2023/06/27 03:26:46;;;;;;;3.88;1.60;;;;;;;14.75;100.00;100882.94;6306805;28;20087;-89
2023/06/27 03:29:48;;;;;;;7.20;1.70;;;;;;;14.76;100.00;100873.34;6277416;28;20089;-90
2023/06/27 03:32:50;;;;;;;8.23;1.60;;;;;;;14.76;100.00;100878.56;6273720;28;20057;-90
2023/06/27 03:35:52;;;;;;;2.25;1.45;;;;;;;14.76;100.00;100875.97;6259224;28;20395;-90
2023/06/27 03:38:57;;;;;;;3.25;1.70;;;;;;;14.77;100.00;100877.59;6312215;28;20079;-90
2023/06/27 03:41:59;;;;;;;4.78;1.50;;;;;;;14.75;100.00;100884.72;6292331;28;20453;-90
2023/06/27 03:45:03;;;;;;;4.50;1.52;;;;;;;14.74;100.00;100883.09;6311591;28;20060;-90
2023/06/27 03:48:05;;;;;;;4.10;1.60;;;;;;;14.82;100.00;100878.81;6286377;28;20143;-90
2023/06/27 03:51:07;;;;;;;4.22;1.67;;;;;;;14.90;100.00;100882.50;6304165;28;20162;-90
2023/06/27 03:54:10;;;;;;;4.57;1.60;;;;;;;14.97;100.00;100873.97;6286905;28;20054;-90
2023/06/27 03:57:12;;;;;;;5.22;1.92;;;;;;;14.96;100.00;100879.34;6292800;28;20048;-89
2023/06/27 04:00:14;;;;;;;3.05;1.75;;;;;;;14.96;100.00;100874.13;6285812;28;20619;-90
2023/06/27 04:03:17;;;;;;;5.57;1.67;;;;;;;14.93;100.00;100879.59;6293157;28;20157;-90
2023/06/27 04:06:19;;;;;;;4.57;1.60;;;;;;;14.96;100.00;100879.34;6292847;28;20052;-90
2023/06/27 04:09:21;;;;;;;4.35;2.17;;;;;;;14.98;100.00;100878.25;6293154;28;20048;-90
2023/06/27 04:12:23;;;;;;;3.30;1.50;;;;;;;15.04;100.00;100885.47;6284227;28;20128;-90
2023/06/27 04:15:26;;;;;;;3.95;1.58;;;;;;;15.08;100.00;100888.66;6298955;28;20051;-90
2023/06/27 04:18:29;;;;;;;5.68;1.80;;;;;;;15.20;100.00;100877.06;6293977;28;20044;-91
2023/06/27 04:21:31;;;;;;;3.78;1.88;;;;;;;15.21;100.00;100883.94;6289472;28;20097;-92
2023/06/27 04:24:33;;;;;;;4.60;1.77;;;;;;;15.26;100.00;100889.53;6291608;28;20223;-91
2023/06/27 04:27:36;;;;;;;5.22;2.00;;;;;;;15.27;100.00;100885.13;6309684;28;20514;-90
2023/06/27 04:30:37;;;;;;;4.40;1.45;;;;;;;15.31;100.00;100880.47;6309099;28;20044;-90
2023/06/27 04:33:40;;;;;;;3.03;1.67;;;;;;;15.28;100.00;100886.78;6285740;28;20177;-90
2023/06/27 04:36:43;;;;;;;5.38;2.25;;;;;;;15.32;100.00;100892.53;6301894;28;20174;-90
2023/06/27 04:39:45;;;;;;;3.50;2.20;;;;;;;15.36;100.00;100893.91;6287714;28;20043;-90
2023/06/27 04:42:47;;;;;;;7.20;2.17;;;;;;;15.47;100.00;100891.09;6290465;28;20048;-91
2023/06/27 04:45:49;;;;;;;3.30;1.90;;;;;;;15.67;100.00;100887.41;6275815;28;20150;-91
2023/06/27 04:48:51;;;;;;;4.95;1.88;;;;;;;15.68;100.00;100886.47;6292491;28;20655;-91
2023/06/27 04:51:54;;;;;;;4.78;1.80;;;;;;;15.76;100.00;100896.22;6305977;28;20063;-91
2023/06/27 04:54:55;;;;;;;5.78;2.45;;;;;;;15.79;100.00;100889.88;6284362;28;20044;-91
2023/06/27 04:57:57;;;;;;;4.47;2.17;;;;;;;15.81;100.00;100893.16;6303805;28;20055;-92
2023/06/27 05:00:59;;;;;;;7.40;2.70;;;;;;;15.88;100.00;100884.59;6285075;28;20032;-91
2023/06/27 05:04:04;;;;;;;3.17;2.03;;;;;;;15.86;100.00;100886.53;6297989;28;20052;-91
2023/06/27 05:07:06;;;;;;;3.03;1.90;;;;;;;15.93;100.00;100892.81;6296989;28;20409;-90
2023/06/27 05:10:09;;;;;;;5.32;2.33;;;;;;;15.99;100.00;100887.97;6304440;28;20040;-91
2023/06/27 05:13:11;;;;;;;5.50;2.00;;;;;;;16.10;100.00;100891.19;6305211;28;20045;-91
2023/06/27 05:16:13;;;;;;;5.43;2.33;;;;;;;16.12;100.00;100885.81;6296496;28;20037;-90
2023/06/27 05:19:15;;;;;;;5.15;1.90;;;;;;;16.26;100.00;100884.47;6314431;28;20104;-91
2023/06/27 05:22:17;;;;;;;4.05;1.98;;;;;;;16.32;100.00;100889.09;6314294;28;20393;-91
2023/06/27 05:25:19;;;;;;;3.20;1.67;;;;;;;16.36;100.00;100880.00;6308348;28;20047;-90
2023/06/27 05:28:21;;;;;;;4.80;1.92;;;;;;;16.41;100.00;100879.56;6308668;28;20098;-91
2023/06/27 05:31:23;;;;;;;4.28;1.98;;;;;;;16.46;100.00;100885.16;6315157;28;20055;-90
2023/06/27 05:34:25;;;;;;;6.95;1.85;;;;;;;16.51;100.00;100881.09;6305996;28;20040;-92
2023/06/27 05:37:28;;;;;;;2.40;1.92;;;;;;;16.57;100.00;100890.13;6307236;28;20036;-91
2023/06/27 05:40:30;;;;;;;2.78;2.10;;;;;;;16.63;100.00;100883.50;6312396;28;20051;-90
2023/06/27 05:43:31;;;;;;;3.95;1.60;;;;;;;16.66;100.00;100873.53;6313597;28;20052;-90
2023/06/27 05:46:38;;;;;;;3.75;2.10;;;;;;;16.71;100.00;100883.53;6311856;28;20096;-90
2023/06/27 05:49:40;;;;;;;3.28;1.60;;;;;;;16.79;100.00;100894.06;6286558;28;20062;-91
2023/06/27 05:52:42;;;;;;;3.97;1.85;;;;;;;16.85;100.00;100885.63;6305798;28;20451;-91
2023/06/27 05:55:44;;;;;;;3.58;2.15;;;;;;;16.90;100.00;100875.53;6311010;28;20048;-91
2023/06/27 05:58:47;;;;;;;3.17;1.55;;;;;;;17.00;100.00;100872.81;6312165;28;20450;-90
2023/06/27 06:01:49;;;;;;;5.13;1.90;;;;;;;17.00;100.00;100876.25;6310866;28;20562;-91
2023/06/27 06:04:54;;;;;;;4.50;1.65;;;;;;;17.04;100.00;100881.97;6275959;28;20535;-91
2023/06/27 06:07:56;;;;;;;3.92;1.85;;;;;;;17.18;100.00;100883.22;6274451;28;20565;-91
2023/06/27 06:10:58;;;;;;;2.15;1.50;;;;;;;17.27;100.00;100887.53;6301090;28;20102;-89
2023/06/27 06:14:01;;;;;;;4.43;1.70;;;;;;;17.29;100.00;100874.25;6310373;28;20051;-90
2023/06/27 06:17:03;;;;;;;5.05;1.70;;;;;;;17.37;100.00;100888.22;6288449;28;20039;-90
2023/06/27 06:20:12;;;;;;;6.50;1.98;;;;;;;17.42;100.00;100898.22;6306405;28;20560;-91
2023/06/27 06:23:14;;;;;;;3.20;1.60;;;;;;;17.42;100.00;100896.44;6305286;28;20533;-92
2023/06/27 06:26:15;;;;;;;4.22;1.77;;;;;;;17.41;100.00;100892.16;6299536;28;20296;-90
2023/06/27 06:29:18;;;;;;;3.63;1.80;;;;;;;17.49;100.00;100887.94;6308395;28;20047;-90
2023/06/27 06:32:20;;;;;;;4.10;1.67;;;;;;;17.52;100.00;100900.72;6305515;28;20052;-91
2023/06/27 06:35:22;;;;;;;5.47;1.83;;;;;;;17.58;100.00;100895.66;6309202;28;20041;-90
2023/06/27 06:38:24;;;;;;;5.28;1.65;;;;;;;17.59;100.00;100902.56;6291413;28;20489;-93
2023/06/27 06:41:27;;;;;;;2.22;1.50;;;;;;;17.72;100.00;100909.16;6275016;28;20156;-90
2023/06/27 06:44:29;;;;;;;2.97;1.52;;;;;;;17.78;100.00;100900.63;6286501;28;20036;-90
2023/06/27 06:47:33;;;;;;;5.45;2.10;;;;;;;17.86;100.00;100892.84;6304862;28;20040;-90
2023/06/27 06:50:36;;;;;;;4.85;1.80;;;;;;;17.86;100.00;100905.94;6299336;28;20104;-90
2023/06/27 06:53:38;;;;;;;5.57;1.50;;;;;;;17.98;100.00;100903.84;6265069;28;20401;-90
2023/06/27 06:56:40;;;;;;;3.10;1.48;;;;;;;17.99;100.00;100889.78;6286864;28;20053;-92
2023/06/27 06:59:42;;;;;;;5.03;1.60;;;;;;;18.02;100.00;100897.31;6304688;28;20384;-92
2023/06/27 07:02:43;;;;;;;3.08;1.42;;;;;;;18.03;100.00;100893.69;6294011;28;20040;-88
2023/06/27 07:05:45;;;;;;;3.55;1.60;;;;;;;18.07;100.00;100897.63;6294647;28;20451;-89
2023/06/27 07:08:47;;;;;;;2.58;1.60;;;;;;;18.14;100.00;100896.03;6300327;28;20193;-89
2023/06/27 07:11:50;;;;;;;4.53;1.65;;;;;;;18.18;100.00;100892.06;6291371;28;20067;-89
2023/06/27 07:14:52;;;;;;;4.78;1.60;;;;;;;18.22;100.00;100892.59;6309994;28;20036;-88
2023/06/27 07:17:54;;;;;;;8.40;1.67;;;;;;;18.33;100.00;100879.16;6298159;28;20410;-89
2023/06/27 07:20:56;;;;;;;3.92;1.88;;;;;;;18.37;100.00;100890.97;6296150;28;20044;-85
2023/06/27 07:23:57;;;;;;;4.32;1.70;;;;;;;18.40;100.00;100880.13;6303278;28;20168;-90
2023/06/27 07:26:59;;;;;;;3.35;1.52;;;;;;;18.42;100.00;100880.00;6300908;28;20041;-89
2023/06/27 07:30:02;;;;;;;4.80;1.52;;;;;;;18.51;100.00;100879.00;6289851;28;20047;-89
2023/06/27 07:33:05;;;;;;;3.78;1.60;;;;;;;18.69;100.00;100882.28;6301174;28;20170;-90
2023/06/27 07:36:07;;;;;;;4.43;1.48;;;;;;;18.97;100.00;100881.91;6306356;28;20036;-90
2023/06/27 07:39:10;;;;;;;3.95;1.60;;;;;;;19.18;100.00;100885.81;6289272;28;20074;-92
2023/06/27 07:42:12;;;;;;;2.05;1.42;;;;;;;19.08;100.00;100880.75;6308618;28;20074;-89
2023/06/27 07:45:14;;;;;;;3.38;1.65;;;;;;;19.20;100.00;100873.34;6306666;28;20123;-91
2023/06/27 07:48:17;;;;;;;7.03;2.20;;;;;;;19.34;100.00;100872.63;6305793;28;20036;-90
2023/06/27 07:51:19;;;;;;;4.57;1.40;;;;;;;19.51;100.00;100863.69;6300446;28;20066;-90
2023/06/27 07:54:21;;;;;;;9.45;1.25;;;;;;;19.74;100.00;100876.09;6305882;28;20032;-89
2023/06/27 07:57:22;;;;;;;1.75;1.13;;;;;;;19.79;100.00;100871.94;6299690;28;20082;-90
2023/06/27 08:00:24;;;;;;;4.22;1.80;;;;;;;19.94;100.00;100868.59;6303908;28;20530;-90
2023/06/27 08:03:28;;;;;;;4.32;1.65;;;;;;;20.22;100.00;100858.34;6285174;28;20036;-89
2023/06/27 08:06:30;;;;;;;4.97;1.60;;;;;;;20.34;100.00;100867.47;6281169;28;20234;-89
2023/06/27 08:09:33;;;;;;;2.88;1.40;;;;;;;20.42;100.00;100856.91;6271808;28;20047;-90
2023/06/27 08:12:35;;;;;;;3.45;1.42;;;;;;;20.35;100.00;100871.75;6281644;28;20404;-89
2023/06/27 08:15:37;;;;;;;2.85;1.27;;;;;;;20.25;100.00;100862.44;6303817;28;20044;-91
2023/06/27 08:18:39;;;;;;;2.15;1.25;;;;;;;20.32;100.00;100861.59;6285617;28;20043;-91
2023/06/27 08:21:40;;;;;;;3.95;1.50;;;;;;;20.54;100.00;100861.72;6287484;28;20048;-88
2023/06/27 08:24:42;;;;;;;4.28;1.17;;;;;;;20.72;100.00;100877.19;6306507;28;20044;-94
2023/06/27 08:27:44;;;;;;;4.28;1.38;;;;;;;20.93;100.00;100858.09;6305874;28;20044;-90
2023/06/27 08:30:46;;;;;;;4.28;1.15;;;;;;;20.67;100.00;100864.59;6296704;28;20075;-89
2023/06/27 08:33:48;;;;;;;3.50;1.38;;;;;;;20.51;100.00;100851.56;6267930;28;20278;-91
2023/06/27 08:36:51;;;;;;;2.40;1.17;;;;;;;20.31;100.00;100859.13;6307051;28;20036;-90
2023/06/27 08:39:53;;;;;;;3.58;1.40;;;;;;;20.13;100.00;100859.44;6289020;28;20040;-90
2023/06/27 08:42:55;;;;;;;2.33;1.13;;;;;;;20.03;100.00;100857.03;6289506;28;20037;-89
2023/06/27 08:46:00;;;;;;;3.70;1.30;;;;;;;20.02;100.00;100858.00;6300917;28;20044;-87
2023/06/27 08:49:03;;;;;;;3.55;1.55;;;;;;;20.22;100.00;100846.06;6289889;28;20067;-90
2023/06/27 08:52:08;;;;;;;5.30;1.55;;;;;;;20.32;100.00;100845.81;6297786;28;20036;-89
2023/06/27 08:55:35;;;;;;;2.28;0.88;;;;;;;20.43;100.00;100841.94;6287390;28;20093;-88
2023/06/27 08:59:01;;;;;;;3.28;1.40;;;;;;;20.50;100.00;100848.13;6304016;28;20553;-90
2023/06/27 09:02:05;;;;;;;3.88;1.27;;;;;;;20.56;100.00;100839.53;6299013;28;20041;-90
2023/06/27 09:05:08;;;;;;;2.83;1.00;;;;;;;20.76;100.00;100846.91;6308738;28;20186;-90
2023/06/27 09:08:11;;;;;;;2.92;0.90;;;;;;;21.05;100.00;100835.59;6309539;28;20036;-88
2023/06/27 09:11:15;;;;;;;2.10;1.33;;;;;;;21.31;100.00;100835.09;6299671;28;20287;-87
2023/06/27 09:14:17;;;;;;;4.63;1.20;;;;;;;21.74;100.00;100848.41;6305166;28;20481;-89
2023/06/27 09:17:19;;;;;;;5.20;1.13;;;;;;;21.93;100.00;100837.22;6288045;28;20045;-89
2023/06/27 09:20:23;;;;;;;3.08;1.10;;;;;;;21.76;100.00;100833.19;6309386;28;20036;-90
2023/06/27 09:23:28;;;;;;;3.08;1.48;;;;;;;21.46;100.00;100838.53;6292834;28;20063;-90
2023/06/27 09:26:30;;;;;;;2.65;1.20;;;;;;;21.22;100.00;100839.66;6308402;28;20120;-90
2023/06/27 09:29:32;;;;;;;1.98;1.15;;;;;;;20.81;100.00;100836.66;6301113;28;20048;-91
2023/06/27 09:32:50;;;;;;;2.28;1.35;;;;;;;20.62;100.00;100833.56;6309765;28;20109;-90
2023/06/27 09:35:52;;;;;;;5.15;1.23;;;;;;;20.71;100.00;100833.47;6294734;28;20517;-89
2023/06/27 09:39:08;;;;;;;4.50;1.48;;;;;;;20.93;100.00;100837.03;6269951;28;20071;-89
2023/06/27 09:42:09;;;;;;;2.45;1.10;;;;;;;21.20;100.00;100833.75;6308153;28;20051;-89
2023/06/27 09:45:14;;;;;;;3.33;1.42;;;;;;;21.63;100.00;100831.22;6292411;28;20253;-91
2023/06/27 09:48:18;;;;;;;3.53;1.30;;;;;;;21.99;100.00;100822.47;6291982;28;20430;-90
2023/06/27 09:51:24;;;;;;;2.00;0.98;;;;;;;22.03;100.00;100844.00;6307692;28;20040;-89
2023/06/27 09:54:26;;;;;;;3.65;1.40;;;;;;;21.45;100.00;100831.66;6309808;28;20051;-89
2023/06/27 09:57:30;;;;;;;3.35;1.38;;;;;;;21.54;100.00;100850.81;6308905;28;20418;-90
2023/06/27 10:00:32;;;;;;;3.22;1.17;;;;;;;21.91;100.00;100849.78;6292630;28;20040;-90
2023/06/27 10:03:34;;;;;;;4.60;1.50;;;;;;;22.20;100.00;100836.69;6291297;28;20059;-92
2023/06/27 10:06:37;;;;;;;3.70;1.55;;;;;;;22.36;100.00;100829.31;6302528;28;20083;-88
2023/06/27 10:09:41;;;;;;;2.40;1.20;;;;;;;22.70;100.00;100835.63;6305260;28;20125;-90
2023/06/27 10:12:43;;;;;;;3.63;1.17;;;;;;;22.67;100.00;100824.66;6310760;28;20216;-87
2023/06/27 10:15:46;;;;;;;3.65;1.20;;;;;;;22.71;100.00;100820.63;6310907;28;20380;-90
2023/06/27 10:18:48;;;;;;;2.10;0.98;;;;;;;22.75;100.00;100824.50;6308523;28;20066;-90
2023/06/27 10:21:50;;;;;;;3.45;1.30;;;;;;;22.73;100.00;100829.13;6304108;28;20097;-89
2023/06/27 10:24:56;;;;;;;2.80;1.10;;;;;;;22.69;100.00;100827.91;6311758;28;20592;-89
2023/06/27 10:28:06;;;;;;;5.97;1.50;;;;;;;22.88;100.00;100810.53;6302565;28;20040;-89
2023/06/27 10:31:08;;;;;;;3.70;1.10;;;;;;;22.83;100.00;100821.72;6305636;28;20497;-88
2023/06/27 10:34:20;;;;;;;1.38;1.13;;;;;;;22.71;100.00;100800.31;6303143;28;20253;-88
2023/06/27 10:37:28;;;;;;;3.80;1.30;;;;;;;22.63;100.00;100803.09;6294639;28;20047;-89
2023/06/27 10:41:03;;;;;;;1.27;1.02;;;;;;;22.78;100.00;100798.53;6300016;28;20044;-93
2023/06/27 10:44:17;;;;;;;3.33;1.48;;;;;;;22.38;100.00;100794.00;6305570;28;20070;-89
2023/06/27 10:47:22;;;;;;;6.82;1.13;;;;;;;22.01;100.00;100799.38;6306424;28;20545;-88
2023/06/27 10:50:24;;;;;;;3.30;1.30;;;;;;;21.93;100.00;100804.75;6303964;28;20417;-90
2023/06/27 10:53:27;;;;;;;1.65;1.00;;;;;;;21.92;100.00;100809.22;6283067;28;20405;-92
2023/06/27 10:56:29;;;;;;;2.92;1.20;;;;;;;21.99;100.00;100804.03;6303494;28;20603;-89
2023/06/27 10:59:34;;;;;;;3.78;1.25;;;;;;;22.18;100.00;100792.00;6301513;28;20516;-90
2023/06/27 11:02:36;;;;;;;1.77;1.08;;;;;;;22.36;100.00;100796.84;6301351;28;20457;-88
2023/06/27 11:05:44;;;;;;;4.53;1.23;;;;;;;22.76;100.00;100808.47;6293241;28;20051;-89
2023/06/27 11:08:54;;;;;;;2.97;1.02;;;;;;;22.65;100.00;100795.00;6306491;28;20075;-89
2023/06/27 11:12:16;;;;;;;3.33;1.02;;;;;;;22.45;100.00;100794.88;6305630;28;20112;-87
2023/06/27 11:15:18;;;;;;;2.03;1.20;;;;;;;22.67;100.00;100798.25;6295881;28;20040;-87
2023/06/27 11:18:25;;;;;;;2.35;0.95;;;;;;;23.18;100.00;100797.94;6285201;28;20698;-89
2023/06/27 11:21:27;;;;;;;2.47;1.20;;;;;;;23.57;100.00;100797.22;6295670;28;20036;-88
2023/06/27 11:24:31;;;;;;;4.93;1.60;;;;;;;23.49;100.00;100786.84;6271189;28;20441;-87
2023/06/27 11:27:32;;;;;;;4.03;1.45;;;;;;;23.43;100.00;100780.53;6298516;28;20032;-91
2023/06/27 11:30:35;;;;;;;4.20;1.50;;;;;;;23.57;100.00;100780.56;6288700;28;20122;-87
2023/06/27 11:33:37;;;;;;;2.20;1.30;;;;;;;23.72;100.00;100790.94;6306512;28;20036;-89
2023/06/27 11:36:40;;;;;;;2.58;0.90;;;;;;;23.46;97.39;100789.91;6281338;28;20048;-89
2023/06/27 11:39:56;;;;;;;3.22;1.30;;;;;;;23.36;97.87;100785.00;6277949;28;20433;-88
2023/06/27 11:43:06;;;;;;;2.72;1.23;;;;;;;23.46;94.33;100783.81;6279349;28;20739;-88
2023/06/27 11:46:08;;;;;;;2.70;0.80;;;;;;;23.90;92.06;100793.88;6268694;28;20074;-91
2023/06/27 11:49:10;;;;;;;5.85;1.10;;;;;;;23.99;90.81;100781.25;6297173;28;20039;-90
2023/06/27 11:52:13;;;;;;;2.22;1.05;;;;;;;23.94;90.21;100778.41;6278172;28;20512;-91
2023/06/27 11:55:16;;;;;;;2.75;0.90;;;;;;;23.91;83.43;100757.66;6287862;28;20043;-90
2023/06/27 11:58:36;;;;;;;3.13;0.90;;;;;;;23.74;86.43;100775.75;6283283;28;20032;-92
2023/06/27 12:01:45;;;;;;;3.13;0.80;;;;;;;24.00;83.26;100756.41;6286629;28;20272;-88
2023/06/27 12:04:56;;;;;;;2.70;0.98;;;;;;;24.45;86.24;100764.53;6303766;28;20517;-88
2023/06/27 12:08:03;;;;;;;2.55;0.90;;;;;;;25.01;91.34;100753.34;6306572;28;20489;-87
2023/06/27 12:11:05;;;;;;;2.83;1.00;;;;;;;24.93;85.81;100766.84;6279767;28;20078;-88
2023/06/27 12:14:07;;;;;;;5.68;1.10;;;;;;;24.92;86.13;100750.16;6309888;28;20410;-89
2023/06/27 12:17:21;;;;;;;2.30;0.93;;;;;;;24.82;80.54;100763.03;6311115;28;20040;-91
2023/06/27 12:20:23;;;;;;;3.20;0.93;;;;;;;24.65;83.17;100743.34;6295995;28;20043;-90
2023/06/27 12:23:28;;;;;;;1.58;1.00;;;;;;;24.49;73.93;100753.31;6307690;28;20185;-90
2023/06/27 12:26:30;;;;;;;1.05;0.90;;;;;;;24.58;74.45;100750.47;6307359;28;20044;-90
2023/06/27 12:29:33;;;;;;;3.35;1.00;;;;;;;24.91;82.18;100753.00;6292418;28;20048;-91
2023/06/27 12:32:35;;;;;;;2.05;0.95;;;;;;;24.63;79.52;100750.66;6306487;28;20166;-90
2023/06/27 12:35:39;;;;;;;1.55;0.82;;;;;;;24.66;78.43;100745.75;6311346;28;20584;-90
2023/06/27 12:38:40;;;;;;;3.42;1.45;;;;;;;25.09;80.44;100753.13;6305937;28;20044;-90
2023/06/27 12:41:42;;;;;;;3.30;1.27;;;;;;;25.05;75.16;100749.28;6310647;28;20048;-91
2023/06/27 12:44:44;;;;;;;4.55;1.52;;;;;;;25.04;82.38;100745.00;6306052;28;20044;-90
2023/06/27 12:47:46;;;;;;;4.03;1.33;;;;;;;25.23;80.67;100739.84;6303599;28;20040;-91
2023/06/27 12:50:48;;;;;;;4.07;1.38;;;;;;;25.73;81.31;100759.28;6314324;28;20552;-89
2023/06/27 12:53:51;;;;;;;2.70;1.17;;;;;;;25.57;76.41;100738.59;6292977;28;20394;-92
2023/06/27 12:56:53;;;;;;;2.03;1.13;;;;;;;25.71;84.24;100744.59;6299005;28;20052;-88
2023/06/27 12:59:55;;;;;;;1.95;1.30;;;;;;;25.44;78.80;100736.84;6295339;28;20051;-90
2023/06/27 13:02:57;;;;;;;2.97;1.42;;;;;;;25.46;77.04;100731.31;6303381;28;20502;-89
2023/06/27 13:06:18;;;;;;;6.05;1.50;;;;;;;25.25;79.49;100717.41;6304430;28;20346;-90
2023/06/27 13:09:22;;;;;;;3.05;1.30;;;;;;;25.12;80.00;100715.63;6304794;28;20529;-91
2023/06/27 13:12:26;;;;;;;4.68;1.30;;;;;;;24.81;77.65;100720.84;6281965;28;20498;-92
2023/06/27 13:15:29;;;;;;;3.35;1.35;;;;;;;24.89;79.83;100716.16;6283272;28;20461;-90
2023/06/27 13:18:45;;;;;;;1.83;1.20;;;;;;;24.99;87.81;100718.31;6292598;28;20403;-93
2023/06/27 13:21:50;;;;;;;4.03;1.48;;;;;;;25.21;80.99;100728.63;6305344;28;20097;-90
2023/06/27 13:24:53;;;;;;;2.78;1.35;;;;;;;25.38;76.67;100718.34;6298197;28;20068;-88
2023/06/27 13:27:58;;;;;;;4.80;1.40;;;;;;;25.93;73.85;100721.19;6301030;28;20154;-90
2023/06/27 13:31:00;;;;;;;2.20;1.30;;;;;;;25.65;70.19;100740.19;6311596;28;20044;-90
2023/06/27 13:34:03;;;;;;;4.93;1.35;;;;;;;24.78;73.88;100731.88;6293191;28;20048;-86
2023/06/27 13:37:05;;;;;;;2.63;1.63;;;;;;;24.17;77.40;100719.78;6298782;28;20047;-88
2023/06/27 13:40:08;;;;;;;4.72;1.48;;;;;;;23.89;88.15;100722.66;6314265;28;20481;-91
2023/06/27 13:43:10;;;;;;;2.63;1.30;;;;;;;23.56;93.72;100712.88;6290222;28;20052;-90
2023/06/27 13:46:12;;;;;;;3.13;1.20;;;;;;;23.42;97.86;100712.84;6301909;28;20036;-91
2023/06/27 13:49:14;;;;;;;3.85;1.10;;;;;;;23.26;100.00;100696.56;6312598;28;20063;-89
2023/06/27 13:52:15;;;;;;;2.70;1.20;;;;;;;22.96;98.16;100702.97;6313645;28;20067;-90
2023/06/27 13:55:18;;;;;;;2.40;1.02;;;;;;;22.68;100.00;100731.25;6314176;28;20040;-88
2023/06/27 13:58:22;;;;;;;2.15;1.17;;;;;;;22.19;100.00;100740.91;6312950;28;20112;-88
2023/06/27 14:01:26;;;;;;;2.72;1.10;;;;;;;21.29;100.00;100750.19;6301572;28;20064;-88
2023/06/27 14:04:30;;;;;;;9.27;1.98;;;;;;;19.33;100.00;100737.13;6310117;28;20118;-85
2023/06/27 14:07:32;;;;;;;6.50;1.85;;;;;;;18.41;100.00;100736.78;6311873;28;20498;-88